Time;durP1;ratioP1;P1;durP2;ratioP2;P2;SDS_P1;SDS_P2;PMS_P1;PMS_P2;Temp;Humidity;BMP_temperature;BMP_pressure;BME280_temperature;BME280_humidity;BME280_pressure;Samples;Min_cycle;Max_cycle;Signal;HPM_P1;HPM_P2
2023/06/08 00:02:25;;;;;;;11.60;4.88;;;13.10;99.90;;;;;;5015913;28;20148;-63
2023/06/08 00:04:52;;;;;;;12.40;5.07;;;13.00;99.90;;;;;;5018898;28;20140;-63
2023/06/08 00:07:21;;;;;;;19.63;4.53;;;13.00;99.90;;;;;;5036831;28;20072;-62
2023/06/08 00:09:50;;;;;;;19.67;5.85;;;12.90;99.90;;;;;;5046785;28;20106;-62
2023/06/08 00:12:18;;;;;;;12.70;4.53;;;12.90;99.90;;;;;;5047601;28;20140;-62
2023/06/08 00:14:45;;;;;;;11.30;4.10;;;13.00;99.90;;;;;;5017573;28;20481;-62
2023/06/08 00:17:13;;;;;;;13.00;4.13;;;13.00;99.90;;;;;;5026601;28;20224;-63
2023/06/08 00:19:42;;;;;;;10.85;4.93;;;13.10;99.90;;;;;;5020749;28;20128;-62
2023/06/08 00:22:12;;;;;;;15.60;4.47;;;13.20;99.90;;;;;;5036672;28;20425;-62
2023/06/08 00:24:39;;;;;;;15.02;4.68;;;13.20;99.90;;;;;;5039551;28;20052;-62
2023/06/08 00:27:07;;;;;;;10.70;4.30;;;13.20;99.90;;;;;;5040236;28;20045;-62
2023/06/08 00:29:34;;;;;;;11.55;4.00;;;13.10;99.90;;;;;;5041436;28;20060;-62
2023/06/08 00:32:01;;;;;;;10.68;3.92;;;13.20;99.90;;;;;;5039490;28;20068;-62
2023/06/08 00:34:28;;;;;;;13.45;3.97;;;13.10;99.90;;;;;;5031818;28;20449;-62
2023/06/08 00:36:55;;;;;;;12.43;5.38;;;13.10;99.90;;;;;;5032811;28;20045;-61
2023/06/08 00:39:22;;;;;;;13.00;4.28;;;13.00;99.90;;;;;;5030972;28;20084;-61
2023/06/08 00:41:49;;;;;;;12.57;4.53;;;13.00;99.90;;;;;;5037047;28;20132;-62
2023/06/08 00:44:16;;;;;;;11.90;3.80;;;13.00;99.90;;;;;;5043832;28;20044;-61
2023/06/08 00:46:43;;;;;;;11.32;4.20;;;12.90;99.90;;;;;;5041353;28;20053;-61
2023/06/08 00:49:11;;;;;;;12.45;4.13;;;12.90;99.90;;;;;;5015178;28;20057;-61
2023/06/08 00:51:41;;;;;;;15.55;4.68;;;12.90;99.90;;;;;;5021893;28;20056;-61
2023/06/08 00:54:10;;;;;;;11.70;4.65;;;12.90;99.90;;;;;;5046164;28;20045;-61
2023/06/08 00:56:38;;;;;;;9.95;4.32;;;13.00;99.90;;;;;;5024147;28;20041;-62
2023/06/08 00:59:05;;;;;;;17.05;4.78;;;12.90;99.90;;;;;;5015250;28;20065;-61
2023/06/08 01:01:35;;;;;;;15.63;5.38;;;12.90;99.90;;;;;;5025126;28;20103;-61
2023/06/08 01:04:09;;;;;;;11.90;4.75;;;13.00;99.90;;;;;;5044958;28;20072;-62
2023/06/08 01:06:45;;;;;;;11.85;3.63;;;13.00;99.90;;;;;;5042591;28;20485;-61
2023/06/08 01:09:26;;;;;;;13.05;4.45;;;12.90;99.90;;;;;;5017131;28;20057;-62
2023/06/08 01:12:13;;;;;;;14.65;4.07;;;12.90;99.90;;;;;;5032538;28;20053;-62
2023/06/08 01:14:46;;;;;;;8.98;3.53;;;12.90;99.90;;;;;;5022079;28;20045;-62
2023/06/08 01:17:15;;;;;;;10.87;4.17;;;12.90;99.90;;;;;;5043931;28;20064;-62
2023/06/08 01:20:09;;;;;;;8.43;3.83;;;12.90;99.90;;;;;;5019420;28;20302;-62
2023/06/08 01:23:11;;;;;;;11.75;4.25;;;12.80;99.90;;;;;;5022711;28;20050;-62
2023/06/08 01:25:38;;;;;;;12.63;4.60;;;12.80;99.90;;;;;;4999769;28;20049;-65
2023/06/08 01:28:13;;;;;;;14.02;4.82;;;12.80;99.90;;;;;;5016940;28;20041;-62
2023/06/08 01:30:41;;;;;;;13.47;4.13;;;12.80;99.90;;;;;;4677197;28;9999753;-61
2023/06/08 01:33:08;;;;;;;18.25;7.50;;;12.70;99.90;;;;;;5041953;28;20144;-62
2023/06/08 01:35:35;;;;;;;9.52;4.05;;;12.70;99.90;;;;;;5022418;28;20051;-62
2023/06/08 01:38:17;;;;;;;13.05;4.82;;;12.80;99.90;;;;;;5021978;28;20049;-62
2023/06/08 01:40:45;;;;;;;9.35;3.95;;;12.80;99.90;;;;;;5024244;28;20045;-62
2023/06/08 01:43:12;;;;;;;13.88;3.90;;;12.70;99.90;;;;;;5014119;28;20053;-62
2023/06/08 01:45:43;;;;;;;8.18;4.05;;;12.70;99.90;;;;;;5032232;28;20088;-62
2023/06/08 01:48:10;;;;;;;13.93;3.53;;;12.80;99.90;;;;;;5013921;28;20067;-63
2023/06/08 01:50:37;;;;;;;11.70;4.03;;;12.80;99.90;;;;;;5013660;28;20393;-62
2023/06/08 01:53:05;;;;;;;5.75;3.85;;;12.80;99.90;;;;;;5022301;28;20048;-61
2023/06/08 01:55:32;;;;;;;12.30;3.97;;;12.80;99.90;;;;;;5029373;28;20056;-62
2023/06/08 01:57:58;;;;;;;12.90;4.50;;;12.80;99.90;;;;;;5039896;28;20041;-60
2023/06/08 02:00:25;;;;;;;11.25;3.90;;;12.90;99.90;;;;;;5046737;28;20092;-61
2023/06/08 02:02:52;;;;;;;6.55;3.65;;;12.80;99.90;;;;;;5019115;28;20044;-60
2023/06/08 02:05:19;;;;;;;10.70;4.95;;;12.80;99.90;;;;;;5029032;28;20527;-61
2023/06/08 02:07:46;;;;;;;12.85;4.85;;;12.80;99.90;;;;;;5018704;28;20049;-60
2023/06/08 02:10:13;;;;;;;14.50;4.32;;;12.80;99.90;;;;;;5043422;28;20405;-61
2023/06/08 02:12:40;;;;;;;7.22;3.47;;;12.80;99.90;;;;;;5041571;28;20152;-62
2023/06/08 02:15:07;;;;;;;11.02;3.05;;;12.80;99.90;;;;;;5041375;28;20064;-61
2023/06/08 02:17:35;;;;;;;13.02;4.20;;;12.80;99.90;;;;;;5022147;28;20088;-61
2023/06/08 02:20:06;;;;;;;12.27;3.53;;;12.70;99.90;;;;;;5017639;28;20128;-61
2023/06/08 02:22:35;;;;;;;11.88;3.97;;;12.70;99.90;;;;;;5035079;28;20048;-61
2023/06/08 02:25:07;;;;;;;8.75;3.10;;;12.80;99.90;;;;;;5041021;28;20044;-61
2023/06/08 02:27:36;;;;;;;10.73;3.47;;;12.80;99.90;;;;;;5046120;28;20052;-61
2023/06/08 02:30:05;;;;;;;10.82;3.03;;;12.70;99.90;;;;;;5042128;28;20057;-61
2023/06/08 02:32:33;;;;;;;16.88;3.80;;;12.70;99.90;;;;;;5035016;28;20045;-60
2023/06/08 02:35:03;;;;;;;7.22;3.45;;;12.80;99.90;;;;;;5039402;28;20045;-61
2023/06/08 02:37:32;;;;;;;7.22;2.78;;;12.70;99.90;;;;;;5049790;28;20054;-60
2023/06/08 02:40:00;;;;;;;8.25;2.90;;;12.70;99.90;;;;;;5002093;28;20120;-60
2023/06/08 02:42:27;;;;;;;9.40;5.55;;;12.70;99.90;;;;;;5011111;28;20177;-60
2023/06/08 02:44:55;;;;;;;8.30;3.33;;;12.70;99.90;;;;;;4998300;28;20190;-60
2023/06/08 02:47:21;;;;;;;11.43;3.85;;;12.70;99.90;;;;;;5007260;28;20049;-61
2023/06/08 02:49:48;;;;;;;8.68;3.30;;;12.80;99.90;;;;;;5003121;28;20069;-61
2023/06/08 02:52:15;;;;;;;9.82;3.15;;;12.80;99.90;;;;;;4997932;28;20091;-61
2023/06/08 02:54:42;;;;;;;10.57;3.53;;;12.80;99.90;;;;;;5003535;28;20557;-61
2023/06/08 02:57:09;;;;;;;11.63;3.20;;;12.80;99.90;;;;;;5003524;28;20320;-62
2023/06/08 02:59:36;;;;;;;14.35;4.00;;;12.80;99.90;;;;;;4999618;28;20046;-61
2023/06/08 03:02:03;;;;;;;8.25;3.17;;;12.70;99.90;;;;;;5001544;28;20053;-60
2023/06/08 03:04:30;;;;;;;8.48;3.40;;;12.70;99.90;;;;;;4998351;28;20042;-61
2023/06/08 03:06:57;;;;;;;13.85;3.92;;;12.70;99.90;;;;;;5002464;28;20406;-61
2023/06/08 03:09:30;;;;;;;10.00;3.35;;;12.70;99.90;;;;;;4997891;28;20057;-61
2023/06/08 03:11:57;;;;;;;8.40;3.30;;;12.70;99.90;;;;;;5004160;28;20341;-61
2023/06/08 03:14:28;;;;;;;8.63;3.40;;;12.70;99.90;;;;;;4997756;28;20057;-63
2023/06/08 03:17:02;;;;;;;9.57;3.33;;;12.70;99.90;;;;;;5005828;28;20111;-63
2023/06/08 03:19:30;;;;;;;14.10;3.90;;;12.70;99.90;;;;;;4995654;28;20054;-63
2023/06/08 03:21:59;;;;;;;13.48;4.13;;;12.70;99.90;;;;;;5003133;28;20105;-63
2023/06/08 03:24:31;;;;;;;14.18;4.43;;;12.70;99.90;;;;;;4995633;28;20540;-62
2023/06/08 03:27:00;;;;;;;13.25;5.43;;;12.70;99.90;;;;;;4995263;28;20085;-63
2023/06/08 03:29:28;;;;;;;9.55;3.63;;;12.70;99.90;;;;;;5004486;28;20070;-62
2023/06/08 03:31:55;;;;;;;8.85;3.00;;;12.60;99.90;;;;;;4994887;28;20089;-63
2023/06/08 03:34:25;;;;;;;8.65;3.25;;;12.60;99.90;;;;;;5004803;28;20155;-63
2023/06/08 03:36:52;;;;;;;8.48;3.63;;;12.60;99.90;;;;;;4995112;28;20082;-62
2023/06/08 03:39:20;;;;;;;9.85;3.10;;;12.60;99.90;;;;;;5004675;28;20054;-63
2023/06/08 03:41:46;;;;;;;10.43;2.88;;;12.60;99.90;;;;;;4994804;28;20112;-62
2023/06/08 03:44:13;;;;;;;9.27;3.30;;;12.60;99.90;;;;;;5003714;28;20057;-62
2023/06/08 03:46:40;;;;;;;12.23;3.58;;;12.60;99.90;;;;;;5002637;28;20038;-63
2023/06/08 03:49:07;;;;;;;9.40;2.63;;;12.60;99.90;;;;;;4996324;28;20390;-63
2023/06/08 03:51:35;;;;;;;8.57;3.33;;;12.60;99.90;;;;;;4997967;28;20112;-63
2023/06/08 03:54:02;;;;;;;7.22;3.28;;;12.60;99.90;;;;;;5007321;28;20481;-63
2023/06/08 03:56:29;;;;;;;8.07;3.15;;;12.60;99.90;;;;;;5004002;28;20061;-63
2023/06/08 03:58:56;;;;;;;10.00;2.90;;;12.70;99.90;;;;;;4999652;28;20046;-63
2023/06/08 04:01:23;;;;;;;10.80;3.42;;;12.70;99.90;;;;;;5002608;28;20057;-62
2023/06/08 04:03:50;;;;;;;17.25;4.72;;;12.60;99.90;;;;;;5001070;28;20406;-63
2023/06/08 04:06:18;;;;;;;8.75;2.95;;;12.60;99.90;;;;;;5004445;28;20493;-63
2023/06/08 04:08:45;;;;;;;6.95;2.83;;;12.60;99.90;;;;;;4999891;28;20078;-63
2023/06/08 04:11:12;;;;;;;8.38;3.67;;;12.50;99.90;;;;;;4995723;28;20038;-63
2023/06/08 04:13:40;;;;;;;10.10;4.10;;;12.60;99.90;;;;;;4996749;28;20060;-63
2023/06/08 04:16:09;;;;;;;6.78;3.55;;;12.60;99.90;;;;;;5002690;28;20041;-63
2023/06/08 04:18:37;;;;;;;9.88;3.15;;;12.60;99.90;;;;;;5002968;28;20148;-63
2023/06/08 04:21:05;;;;;;;5.82;2.53;;;12.50;99.90;;;;;;4997448;28;20081;-62
2023/06/08 04:23:36;;;;;;;6.72;3.60;;;12.50;99.90;;;;;;4993817;28;20046;-62
2023/06/08 04:26:03;;;;;;;10.25;4.30;;;12.60;99.90;;;;;;5003080;28;20050;-62
2023/06/08 04:28:30;;;;;;;8.75;2.97;;;12.50;99.90;;;;;;4993732;28;20050;-63
2023/06/08 04:30:59;;;;;;;9.65;2.60;;;12.60;99.90;;;;;;4998894;28;20108;-63
2023/06/08 04:33:30;;;;;;;10.52;2.60;;;12.60;99.90;;;;;;4999596;28;20069;-63
2023/06/08 04:35:57;;;;;;;11.45;2.63;;;12.60;99.90;;;;;;4997992;28;20567;-63
2023/06/08 04:38:25;;;;;;;7.22;3.00;;;12.60;99.90;;;;;;5014132;28;20487;-62
2023/06/08 04:40:53;;;;;;;7.55;2.70;;;12.60;99.90;;;;;;5042502;28;20060;-63
2023/06/08 04:43:21;;;;;;;11.48;2.90;;;12.60;99.90;;;;;;5036927;28;20045;-63
2023/06/08 04:45:57;;;;;;;11.70;4.10;;;12.60;99.90;;;;;;5034459;28;20136;-63
2023/06/08 04:48:27;;;;;;;6.68;2.83;;;12.50;99.90;;;;;;5040240;28;20053;-63
2023/06/08 04:51:02;;;;;;;7.03;2.65;;;12.50;99.90;;;;;;5044586;28;20451;-62
2023/06/08 04:53:30;;;;;;;8.32;2.90;;;12.50;99.90;;;;;;5018636;28;20120;-63
2023/06/08 04:55:57;;;;;;;9.05;3.35;;;12.60;99.90;;;;;;5045085;28;20048;-62
2023/06/08 04:58:25;;;;;;;8.73;3.05;;;12.60;99.90;;;;;;5039873;28;20163;-62
2023/06/08 05:00:52;;;;;;;8.40;3.33;;;12.60;99.90;;;;;;5013179;28;20053;-62
2023/06/08 05:03:22;;;;;;;11.90;2.92;;;12.50;99.90;;;;;;5037060;28;20080;-63
2023/06/08 05:05:50;;;;;;;6.90;2.88;;;12.60;99.90;;;;;;5046074;28;20047;-62
2023/06/08 05:08:17;;;;;;;8.60;2.55;;;12.60;99.90;;;;;;5041703;28;20048;-63
2023/06/08 05:10:44;;;;;;;6.13;2.83;;;12.60;99.90;;;;;;5028583;28;20053;-63
2023/06/08 05:13:10;;;;;;;7.88;3.20;;;12.70;99.90;;;;;;5042157;28;20492;-62
2023/06/08 05:15:37;;;;;;;8.75;3.28;;;12.70;99.90;;;;;;5040094;28;20045;-63
2023/06/08 05:18:04;;;;;;;7.47;2.75;;;12.60;99.90;;;;;;5045319;28;20045;-61
2023/06/08 05:20:31;;;;;;;10.52;3.30;;;12.60;99.90;;;;;;5038409;28;20067;-61
2023/06/08 05:22:58;;;;;;;9.68;2.80;;;12.60;99.90;;;;;;5011082;28;20041;-61
2023/06/08 05:25:33;;;;;;;7.57;2.70;;;12.60;99.90;;;;;;5041335;28;20602;-63
2023/06/08 05:28:00;;;;;;;9.50;2.97;;;12.60;99.90;;;;;;5035704;28;20052;-63
2023/06/08 05:30:26;;;;;;;4.90;2.78;;;12.60;99.90;;;;;;5046284;28;20072;-63
2023/06/08 05:32:53;;;;;;;13.95;3.33;;;12.60;99.90;;;;;;5040631;28;20047;-63
2023/06/08 05:35:20;;;;;;;6.65;2.60;;;12.60;99.90;;;;;;5036841;28;20479;-63
2023/06/08 05:37:47;;;;;;;12.50;3.22;;;12.60;99.90;;;;;;5036734;28;20559;-63
2023/06/08 05:40:14;;;;;;;10.40;3.03;;;12.60;99.90;;;;;;5038232;28;20057;-62
2023/06/08 05:42:42;;;;;;;8.10;2.95;;;12.70;99.90;;;;;;5037439;28;20053;-62
2023/06/08 05:45:09;;;;;;;6.47;3.15;;;12.60;99.90;;;;;;4686595;28;9999994;-62
2023/06/08 05:47:36;;;;;;;10.25;4.05;;;12.70;99.90;;;;;;5019017;28;20040;-62
2023/06/08 05:50:04;;;;;;;6.38;2.65;;;12.70;99.90;;;;;;5040151;28;20053;-63
2023/06/08 05:52:31;;;;;;;10.30;3.28;;;12.70;99.90;;;;;;5034733;28;20046;-62
2023/06/08 05:54:58;;;;;;;8.45;2.75;;;12.70;99.90;;;;;;5032672;28;20061;-63
2023/06/08 05:57:25;;;;;;;9.32;3.30;;;12.70;99.90;;;;;;5039593;28;20140;-63
2023/06/08 05:59:52;;;;;;;7.53;2.90;;;12.70;99.90;;;;;;5032220;28;20049;-62
2023/06/08 06:02:19;;;;;;;10.60;2.92;;;12.80;99.90;;;;;;5039032;28;20508;-62
2023/06/08 06:04:46;;;;;;;10.63;2.80;;;12.80;99.90;;;;;;5029839;28;20073;-62
2023/06/08 06:07:13;;;;;;;9.13;2.70;;;12.90;99.90;;;;;;5023686;28;20053;-63
2023/06/08 06:09:40;;;;;;;9.02;3.03;;;13.00;99.90;;;;;;5044493;28;20047;-62
2023/06/08 06:12:07;;;;;;;7.28;2.60;;;13.00;99.90;;;;;;5037063;28;20591;-62
2023/06/08 06:14:38;;;;;;;8.13;2.95;;;13.00;99.90;;;;;;5032535;28;20060;-61
2023/06/08 06:17:06;;;;;;;8.52;2.67;;;13.10;99.90;;;;;;5040860;28;20057;-61
2023/06/08 06:19:38;;;;;;;13.95;3.28;;;13.10;99.90;;;;;;5031592;28;20107;-62
2023/06/08 06:22:11;;;;;;;7.40;3.08;;;13.10;99.90;;;;;;5028600;28;20056;-63
2023/06/08 06:24:38;;;;;;;9.35;3.78;;;13.20;99.90;;;;;;5039736;28;20471;-61
2023/06/08 06:27:06;;;;;;;8.63;2.75;;;13.30;99.90;;;;;;5019905;28;20084;-62
2023/06/08 06:29:33;;;;;;;8.60;3.50;;;13.30;99.90;;;;;;5035238;28;20053;-62
2023/06/08 06:32:00;;;;;;;6.68;2.83;;;13.30;99.90;;;;;;5017343;28;20180;-62
2023/06/08 06:34:27;;;;;;;13.75;3.35;;;13.30;99.90;;;;;;5037885;28;20056;-62
2023/06/08 06:36:55;;;;;;;12.57;3.33;;;13.30;99.90;;;;;;5030565;28;20148;-63
2023/06/08 06:39:22;;;;;;;12.82;3.10;;;13.30;99.90;;;;;;5016250;28;20161;-63
2023/06/08 06:41:49;;;;;;;7.00;3.60;;;13.40;99.90;;;;;;5029476;28;20057;-60
2023/06/08 06:44:15;;;;;;;16.00;3.13;;;13.40;99.90;;;;;;5011892;28;20054;-63
2023/06/08 06:46:43;;;;;;;9.40;3.22;;;13.50;99.90;;;;;;5021098;28;20534;-62
2023/06/08 06:49:10;;;;;;;7.15;3.08;;;13.60;99.90;;;;;;5022495;28;20042;-62
2023/06/08 06:51:39;;;;;;;9.82;3.53;;;13.60;99.90;;;;;;5027432;28;20119;-62
2023/06/08 06:54:06;;;;;;;16.95;3.20;;;13.70;99.90;;;;;;5019006;28;20041;-61
2023/06/08 06:56:33;;;;;;;6.10;3.10;;;13.70;99.90;;;;;;5033314;28;20044;-62
2023/06/08 06:58:59;;;;;;;11.52;3.95;;;13.80;99.90;;;;;;5032156;28;20594;-61
2023/06/08 07:01:26;;;;;;;7.55;2.95;;;13.90;99.90;;;;;;5034561;28;20135;-62
2023/06/08 07:03:53;;;;;;;7.05;3.05;;;14.00;99.90;;;;;;4996416;28;20052;-62
2023/06/08 07:06:24;;;;;;;9.43;3.50;;;14.00;99.90;;;;;;5033880;28;20494;-62
2023/06/08 07:08:51;;;;;;;17.48;4.30;;;14.00;99.90;;;;;;5035904;28;20138;-62
2023/06/08 07:11:18;;;;;;;15.95;3.95;;;13.90;99.90;;;;;;5031372;28;20140;-62
2023/06/08 07:13:45;;;;;;;16.42;4.30;;;13.80;99.90;;;;;;5038688;28;20205;-62
2023/06/08 07:16:12;;;;;;;9.52;3.40;;;13.80;99.90;;;;;;5039541;28;20049;-62
2023/06/08 07:18:39;;;;;;;17.25;4.32;;;13.80;99.90;;;;;;5018102;28;20069;-64
2023/06/08 07:21:06;;;;;;;15.98;4.07;;;13.90;99.90;;;;;;5025237;28;20045;-62
2023/06/08 07:23:33;;;;;;;14.27;3.80;;;14.00;99.90;;;;;;5025025;28;20044;-61
2023/06/08 07:26:14;;;;;;;17.30;3.85;;;14.00;99.90;;;;;;5034991;28;20048;-61
2023/06/08 07:28:56;;;;;;;9.98;3.65;;;14.20;99.90;;;;;;5034540;28;20060;-61
2023/06/08 07:31:23;;;;;;;12.23;4.40;;;14.30;99.90;;;;;;5030645;28;20068;-61
2023/06/08 07:33:50;;;;;;;15.60;4.72;;;14.30;99.90;;;;;;5023102;28;20099;-60
2023/06/08 07:36:17;;;;;;;12.68;3.97;;;14.40;99.90;;;;;;5030362;28;20106;-61
2023/06/08 07:38:44;;;;;;;10.70;3.50;;;14.30;99.90;;;;;;5029960;28;20527;-61
2023/06/08 07:41:11;;;;;;;7.82;3.60;;;14.50;99.90;;;;;;5041224;28;20536;-61
2023/06/08 07:43:39;;;;;;;7.50;3.20;;;14.50;99.90;;;;;;5046193;28;20104;-61
2023/06/08 07:46:07;;;;;;;6.97;3.00;;;14.50;99.90;;;;;;5036948;28;20056;-61
2023/06/08 07:48:33;;;;;;;12.30;3.40;;;14.50;99.90;;;;;;5034898;28;20736;-61
2023/06/08 07:51:00;;;;;;;8.07;3.03;;;14.60;99.90;;;;;;5023104;28;20053;-61
2023/06/08 07:53:37;;;;;;;9.88;3.17;;;14.60;99.90;;;;;;5038099;28;20045;-60
2023/06/08 07:56:04;;;;;;;9.48;3.08;;;14.60;99.90;;;;;;5039054;28;20045;-60
2023/06/08 07:58:31;;;;;;;8.27;2.80;;;14.60;99.90;;;;;;5038483;28;20053;-61
2023/06/08 08:01:01;;;;;;;6.10;2.83;;;14.70;99.90;;;;;;5034790;28;20143;-61
2023/06/08 08:03:28;;;;;;;12.23;4.07;;;14.80;99.90;;;;;;5034871;28;20109;-61
2023/06/08 08:05:55;;;;;;;9.70;3.13;;;14.90;99.90;;;;;;5037505;28;20138;-61
2023/06/08 08:08:22;;;;;;;13.77;4.22;;;14.80;99.90;;;;;;5039050;28;20408;-61
2023/06/08 08:10:49;;;;;;;12.57;4.82;;;14.90;99.90;;;;;;5020004;28;20049;-61
2023/06/08 08:13:16;;;;;;;13.55;3.08;;;14.90;99.90;;;;;;5035298;28;20044;-61
2023/06/08 08:15:43;;;;;;;11.95;4.07;;;15.00;99.90;;;;;;5020358;28;20088;-61
2023/06/08 08:18:10;;;;;;;12.90;3.75;;;15.10;99.90;;;;;;5035590;28;20041;-61
2023/06/08 08:20:37;;;;;;;9.05;3.13;;;15.10;99.90;;;;;;5034927;28;20076;-61
2023/06/08 08:23:05;;;;;;;9.70;3.67;;;15.00;99.90;;;;;;5042630;28;20057;-61
2023/06/08 08:25:33;;;;;;;8.02;3.70;;;15.10;99.90;;;;;;5038107;28;20405;-61
2023/06/08 08:28:00;;;;;;;6.90;2.55;;;15.00;99.90;;;;;;5038100;28;20052;-61
2023/06/08 08:30:27;;;;;;;13.35;3.72;;;15.00;99.90;;;;;;5035325;28;20056;-61
2023/06/08 08:32:53;;;;;;;9.00;3.75;;;15.00;99.90;;;;;;5037002;28;20205;-61
2023/06/08 08:35:22;;;;;;;12.45;4.32;;;15.10;99.90;;;;;;5036295;28;20636;-61
2023/06/08 08:37:49;;;;;;;13.23;3.80;;;15.20;99.90;;;;;;5035465;28;20099;-61
2023/06/08 08:40:16;;;;;;;9.57;3.95;;;15.30;99.90;;;;;;5033335;28;20595;-61
2023/06/08 08:42:48;;;;;;;14.50;3.85;;;15.30;99.90;;;;;;5033939;28;20137;-60
2023/06/08 08:45:16;;;;;;;8.35;3.35;;;15.40;99.90;;;;;;5034093;28;20071;-60
2023/06/08 08:47:43;;;;;;;9.07;3.42;;;15.40;99.90;;;;;;5037915;28;20064;-60
2023/06/08 08:50:15;;;;;;;12.70;3.80;;;15.40;99.90;;;;;;5026337;28;20052;-62
2023/06/08 08:52:45;;;;;;;12.27;3.75;;;15.40;99.90;;;;;;5040291;28;20057;-62
2023/06/08 08:55:11;;;;;;;10.93;3.75;;;15.40;99.90;;;;;;5041354;28;20455;-61
2023/06/08 08:58:02;;;;;;;9.75;3.80;;;15.30;99.90;;;;;;5039554;28;20053;-60
2023/06/08 09:00:32;;;;;;;11.07;4.25;;;15.40;99.90;;;;;;5026872;28;20052;-61
2023/06/08 09:03:01;;;;;;;13.40;4.20;;;15.40;99.90;;;;;;5029666;28;20053;-61
2023/06/08 09:05:28;;;;;;;18.02;4.35;;;15.50;99.90;;;;;;5040593;28;20103;-61
2023/06/08 09:07:55;;;;;;;12.75;3.85;;;15.60;99.90;;;;;;5022278;28;20579;-60
2023/06/08 09:10:25;;;;;;;8.48;3.63;;;15.70;99.90;;;;;;5028113;28;20116;-60
2023/06/08 09:12:56;;;;;;;10.40;3.70;;;15.70;99.90;;;;;;5011688;28;20152;-60
2023/06/08 09:15:30;;;;;;;7.68;3.95;;;15.80;99.90;;;;;;5033900;28;20129;-61
2023/06/08 09:18:02;;;;;;;10.02;3.92;;;15.90;99.90;;;;;;5029220;28;20079;-61
2023/06/08 09:20:31;;;;;;;11.50;4.38;;;16.00;99.90;;;;;;5031211;28;20733;-61
2023/06/08 09:23:14;;;;;;;9.00;4.22;;;16.00;99.90;;;;;;5034254;28;20048;-62
2023/06/08 09:25:41;;;;;;;11.70;3.83;;;16.20;99.90;;;;;;5034164;28;20056;-60
2023/06/08 09:28:22;;;;;;;15.98;4.70;;;16.20;99.90;;;;;;5033979;28;20053;-60
2023/06/08 09:30:49;;;;;;;10.75;3.50;;;16.30;99.90;;;;;;5038143;28;20041;-61
2023/06/08 09:33:35;;;;;;;15.05;3.85;;;16.30;99.90;;;;;;5034463;28;20461;-61
2023/06/08 09:36:02;;;;;;;14.43;4.50;;;16.40;99.90;;;;;;5034350;28;20072;-61
2023/06/08 09:38:31;;;;;;;8.70;3.63;;;16.50;99.90;;;;;;5039491;28;20052;-60
2023/06/08 09:41:21;;;;;;;8.45;3.88;;;16.50;99.90;;;;;;5017593;28;20985;-61
2023/06/08 09:43:49;;;;;;;10.75;3.40;;;16.60;99.90;;;;;;5030185;28;20053;-62
2023/06/08 09:46:39;;;;;;;13.80;4.25;;;16.60;99.90;;;;;;5016242;28;20061;-61
2023/06/08 09:49:11;;;;;;;13.23;5.55;;;16.70;99.90;;;;;;5030929;28;20049;-62
2023/06/08 09:51:39;;;;;;;16.55;5.82;;;16.70;99.90;;;;;;5038821;28;20960;-62
2023/06/08 09:54:07;;;;;;;9.30;4.20;;;16.70;99.90;;;;;;5015421;28;20107;-61
2023/06/08 09:56:35;;;;;;;9.90;3.80;;;16.80;99.90;;;;;;5017696;28;20052;-61
2023/06/08 09:59:08;;;;;;;22.42;5.43;;;16.90;99.90;;;;;;5017225;28;20424;-61
2023/06/08 10:01:40;;;;;;;17.92;4.82;;;17.00;99.90;;;;;;5011279;28;20602;-63
2023/06/08 10:04:31;;;;;;;11.35;3.60;;;17.20;99.90;;;;;;5018987;28;20049;-61
2023/06/08 10:07:04;;;;;;;6.50;3.22;;;17.40;99.90;;;;;;5037355;28;20516;-61
2023/06/08 10:09:34;;;;;;;10.90;4.10;;;17.70;99.90;;;;;;5014956;28;20075;-61
2023/06/08 10:12:01;;;;;;;12.75;4.40;;;18.00;99.90;;;;;;5008958;28;20083;-63
2023/06/08 10:14:28;;;;;;;9.88;3.80;;;18.30;99.90;;;;;;5019457;28;20081;-61
2023/06/08 10:16:56;;;;;;;17.40;3.78;;;18.50;99.90;;;;;;5026524;28;20057;-61
2023/06/08 10:19:23;;;;;;;14.52;4.38;;;18.80;99.90;;;;;;5036409;28;20186;-61
2023/06/08 10:21:53;;;;;;;11.27;3.38;;;19.00;99.90;;;;;;5024712;28;20049;-62
2023/06/08 10:24:21;;;;;;;10.27;3.72;;;19.20;99.90;;;;;;5015360;28;20049;-62
2023/06/08 10:26:50;;;;;;;19.48;4.03;;;19.50;99.90;;;;;;5017828;28;20060;-62
2023/06/08 10:29:17;;;;;;;9.05;3.17;;;19.60;99.90;;;;;;5033904;28;20049;-62
2023/06/08 10:31:49;;;;;;;11.35;3.60;;;20.00;99.90;;;;;;5017768;28;20451;-61
2023/06/08 10:34:17;;;;;;;10.43;3.85;;;20.20;99.90;;;;;;5017031;28;20692;-61
2023/06/08 10:36:44;;;;;;;12.48;3.40;;;20.40;99.90;;;;;;5034540;28;20520;-61
2023/06/08 10:39:12;;;;;;;8.13;4.10;;;20.70;99.90;;;;;;5015954;28;20065;-61
2023/06/08 10:41:46;;;;;;;10.32;3.22;;;20.80;99.90;;;;;;5017366;28;20415;-62
2023/06/08 10:44:32;;;;;;;9.75;4.05;;;20.90;99.90;;;;;;5017041;28;20556;-61
2023/06/08 10:47:07;;;;;;;8.13;3.20;;;20.90;99.60;;;;;;5043333;28;20053;-61
2023/06/08 10:49:34;;;;;;;6.70;3.08;;;20.90;99.90;;;;;;5022100;28;20052;-61
2023/06/08 10:52:03;;;;;;;10.60;3.58;;;21.00;99.90;;;;;;5020871;28;20049;-61
2023/06/08 10:54:31;;;;;;;10.88;4.00;;;20.80;99.90;;;;;;5017218;28;20496;-61
2023/06/08 10:56:59;;;;;;;7.85;3.28;;;20.60;99.90;;;;;;5013299;28;20061;-61
2023/06/08 10:59:42;;;;;;;11.32;3.45;;;20.40;99.90;;;;;;5011248;28;20038;-61
2023/06/08 11:02:09;;;;;;;11.02;3.80;;;20.20;99.90;;;;;;5011345;28;20054;-62
2023/06/08 11:04:36;;;;;;;8.13;3.33;;;19.90;99.90;;;;;;5023048;28;20045;-61
2023/06/08 11:07:17;;;;;;;6.85;2.72;;;19.80;99.90;;;;;;5020915;28;20582;-62
2023/06/08 11:09:47;;;;;;;18.95;4.03;;;19.80;99.90;;;;;;5009475;28;20046;-61
2023/06/08 11:12:13;;;;;;;13.45;4.35;;;19.80;99.90;;;;;;5010959;28;20053;-61
2023/06/08 11:14:40;;;;;;;9.32;3.70;;;19.70;99.90;;;;;;5012962;28;20057;-61
2023/06/08 11:17:07;;;;;;;14.27;4.07;;;19.80;99.90;;;;;;5011803;28;20046;-61
2023/06/08 11:19:35;;;;;;;11.18;3.30;;;19.80;99.90;;;;;;5006730;28;20057;-61
2023/06/08 11:22:01;;;;;;;8.48;3.95;;;19.90;99.90;;;;;;5021179;28;20045;-61
2023/06/08 11:24:28;;;;;;;12.43;3.45;;;19.90;99.90;;;;;;5010886;28;20042;-61
2023/06/08 11:27:01;;;;;;;9.30;3.33;;;19.90;99.90;;;;;;5015165;28;20045;-61
2023/06/08 11:29:31;;;;;;;8.65;3.42;;;19.90;99.90;;;;;;5024037;28;20480;-61
2023/06/08 11:32:12;;;;;;;10.50;3.83;;;19.90;99.90;;;;;;5019418;28;20053;-61
2023/06/08 11:34:41;;;;;;;14.05;3.38;;;20.00;99.90;;;;;;5021544;28;20064;-61
2023/06/08 11:37:08;;;;;;;11.50;3.60;;;20.10;99.80;;;;;;5014847;28;20137;-61
2023/06/08 11:39:42;;;;;;;12.10;4.10;;;20.10;99.90;;;;;;5000317;28;20101;-61
2023/06/08 11:42:09;;;;;;;8.82;3.67;;;20.20;99.80;;;;;;4998049;28;20089;-60
2023/06/08 11:44:36;;;;;;;7.22;3.22;;;20.20;99.90;;;;;;5005222;28;20050;-60
2023/06/08 11:47:04;;;;;;;14.38;4.15;;;20.30;99.40;;;;;;5002843;28;20046;-61
2023/06/08 11:49:52;;;;;;;10.82;3.75;;;20.30;99.30;;;;;;4990077;28;20442;-61
2023/06/08 11:52:22;;;;;;;11.85;5.28;;;20.30;98.60;;;;;;4996249;28;20043;-60
2023/06/08 11:54:56;;;;;;;12.57;3.85;;;20.30;98.80;;;;;;4998405;28;20085;-61
2023/06/08 11:57:37;;;;;;;10.85;4.05;;;20.30;98.90;;;;;;4997837;28;20085;-61
2023/06/08 12:00:06;;;;;;;4.22;2.58;;;20.40;98.40;;;;;;4998059;28;20046;-60
2023/06/08 12:02:37;;;;;;;9.88;3.92;;;20.40;98.80;;;;;;5000365;28;20046;-61
2023/06/08 12:05:05;;;;;;;21.52;5.03;;;20.40;98.30;;;;;;4997150;28;20046;-61
2023/06/08 12:07:33;;;;;;;7.35;3.55;;;20.40;98.50;;;;;;4995252;28;20058;-61
2023/06/08 12:10:00;;;;;;;11.07;3.20;;;20.50;98.50;;;;;;4997683;28;20046;-61
2023/06/08 12:12:28;;;;;;;10.68;3.17;;;20.60;98.60;;;;;;5001540;28;20057;-61
2023/06/08 12:14:55;;;;;;;9.15;3.08;;;20.60;98.10;;;;;;5000175;28;20038;-61
2023/06/08 12:17:26;;;;;;;5.88;3.00;;;20.60;98.10;;;;;;4997440;28;20063;-60
2023/06/08 12:19:53;;;;;;;10.13;3.42;;;20.70;98.30;;;;;;4997168;28;20053;-61
2023/06/08 12:22:20;;;;;;;11.63;4.70;;;20.80;98.50;;;;;;5004167;28;20050;-61
2023/06/08 12:24:47;;;;;;;12.25;4.25;;;20.90;98.40;;;;;;4999805;28;20061;-61
2023/06/08 12:27:14;;;;;;;14.00;3.58;;;20.90;98.10;;;;;;5006497;28;20092;-61
2023/06/08 12:29:41;;;;;;;13.23;3.70;;;21.00;98.40;;;;;;4997546;28;20080;-62
2023/06/08 12:32:08;;;;;;;10.75;3.70;;;21.20;98.00;;;;;;4994749;28;20046;-62
2023/06/08 12:34:35;;;;;;;11.90;3.72;;;21.30;98.10;;;;;;4994440;28;20806;-62
2023/06/08 12:37:02;;;;;;;13.23;3.72;;;21.20;97.80;;;;;;5002685;28;20053;-62
2023/06/08 12:39:29;;;;;;;15.13;4.32;;;21.10;97.80;;;;;;5031468;28;20053;-62
2023/06/08 12:41:57;;;;;;;16.02;3.92;;;21.10;98.50;;;;;;5047369;28;20049;-62
2023/06/08 12:44:25;;;;;;;8.80;3.30;;;21.10;98.30;;;;;;5040405;28;20540;-61
2023/06/08 12:46:53;;;;;;;17.75;4.22;;;21.20;98.50;;;;;;5045009;28;20041;-61
2023/06/08 12:49:20;;;;;;;17.90;3.97;;;21.30;98.50;;;;;;5038801;28;20075;-62
2023/06/08 12:51:47;;;;;;;12.02;3.47;;;21.40;98.40;;;;;;5024553;28;20084;-61